createdAt,value
2023-04-14T00:01:00.113Z,12.04
2023-04-14T00:03:29.286Z,12.34
2023-04-14T00:05:58.137Z,11.94
2023-04-14T00:08:26.733Z,11.73
2023-04-14T00:10:55.769Z,11.97
2023-04-14T00:13:25.963Z,11.85
2023-04-14T00:15:56.227Z,11.99
2023-04-14T00:18:25.235Z,12.19
2023-04-14T00:20:56.849Z,12.20
2023-04-14T00:23:26.105Z,12.11
2023-04-14T00:25:54.840Z,11.94
2023-04-14T00:28:24.931Z,12.17
2023-04-14T00:30:53.937Z,12.16
2023-04-14T00:33:22.610Z,12.24
2023-04-14T00:35:51.234Z,12.54
2023-04-14T00:38:20.366Z,12.75
2023-04-14T00:40:49.125Z,12.62
2023-04-14T00:43:19.255Z,12.58
2023-04-14T00:45:50.660Z,12.26
2023-04-14T00:48:19.856Z,12.33
2023-04-14T00:50:48.942Z,12.32
2023-04-14T00:53:17.752Z,12.26
2023-04-14T00:55:46.422Z,12.36
2023-04-14T00:58:16.864Z,12.28
2023-04-14T01:00:45.725Z,12.54
2023-04-14T01:03:15.907Z,12.48
2023-04-14T01:05:45.775Z,12.42
2023-04-14T01:08:14.621Z,12.46
2023-04-14T01:11:12.277Z,12.62
2023-04-14T01:13:45.478Z,12.14
2023-04-14T01:16:18.542Z,12.01
2023-04-14T01:18:56.480Z,12.04
2023-04-14T01:21:30.094Z,11.71
2023-04-14T01:24:14.291Z,11.90
2023-04-14T01:26:43.370Z,12.02
2023-04-14T01:29:30.911Z,12.04
2023-04-14T01:32:06.360Z,12.27
2023-04-14T01:34:39.031Z,12.02
2023-04-14T01:37:09.609Z,12.44
2023-04-14T01:39:40.578Z,12.45
2023-04-14T01:42:12.702Z,12.50
2023-04-14T01:44:42.714Z,12.41
2023-04-14T01:47:15.007Z,12.25
2023-04-14T01:49:45.383Z,12.10
2023-04-14T01:52:16.356Z,11.93
2023-04-14T01:54:48.512Z,12.10
2023-04-14T01:57:19.369Z,11.99
2023-04-14T01:59:50.294Z,12.20
2023-04-14T02:02:21.214Z,12.02
2023-04-14T02:04:50.186Z,12.12
2023-04-14T02:07:21.787Z,12.03
2023-04-14T02:09:50.590Z,12.09
2023-04-14T02:12:20.673Z,12.19
2023-04-14T02:14:51.224Z,12.22
2023-04-14T02:17:21.987Z,12.37
2023-04-14T02:19:51.020Z,12.24
2023-04-14T02:22:20.830Z,12.41
2023-04-14T02:24:55.180Z,12.37
2023-04-14T02:27:29.424Z,12.38
2023-04-14T02:30:06.082Z,12.35
2023-04-14T02:32:36.682Z,12.25
2023-04-14T02:35:12.090Z,12.55
2023-04-14T02:37:43.263Z,12.57
2023-04-14T02:40:16.347Z,12.38
2023-04-14T02:42:48.198Z,12.64
2023-04-14T02:45:22.593Z,12.59
2023-04-14T02:47:56.327Z,12.69
2023-04-14T02:50:26.446Z,12.75
2023-04-14T02:52:56.206Z,13.11
2023-04-14T02:55:26.465Z,12.85
2023-04-14T02:57:56.369Z,12.93
2023-04-14T03:00:25.773Z,12.96
2023-04-14T03:02:57.627Z,12.85
2023-04-14T03:05:26.901Z,12.73
2023-04-14T03:07:56.843Z,12.74
2023-04-14T03:10:26.212Z,12.85
2023-04-14T03:12:58.609Z,12.68
2023-04-14T03:15:28.438Z,12.67
2023-04-14T03:18:00.380Z,12.64
2023-04-14T03:20:30.074Z,12.72
2023-04-14T03:23:04.943Z,12.53
2023-04-14T03:25:37.969Z,12.76
2023-04-14T03:28:12.239Z,12.41
2023-04-14T03:30:45.211Z,12.35
2023-04-14T03:33:21.708Z,12.89
2023-04-14T03:35:51.860Z,12.87
2023-04-14T03:38:21.670Z,13.29
2023-04-14T03:40:51.454Z,13.40
2023-04-14T03:43:23.215Z,13.40
2023-04-14T03:45:53.348Z,13.06
2023-04-14T03:48:26.267Z,13.24
2023-04-14T03:50:57.739Z,13.38
2023-04-14T03:53:27.729Z,13.42
2023-04-14T03:55:58.585Z,13.49
2023-04-14T03:58:28.800Z,13.62
2023-04-14T04:00:57.694Z,13.48
2023-04-14T04:03:28.621Z,13.25
2023-04-14T04:05:57.609Z,13.26
2023-04-14T04:08:27.793Z,13.14
2023-04-14T04:10:56.840Z,12.86
2023-04-14T04:13:26.462Z,12.74
2023-04-14T04:15:55.788Z,13.01
2023-04-14T04:18:28.625Z,13.10
2023-04-14T04:20:58.682Z,13.22
2023-04-14T04:23:29.514Z,13.34
2023-04-14T04:25:58.631Z,13.18
2023-04-14T04:28:30.827Z,13.27
2023-04-14T04:31:01.742Z,12.53
2023-04-14T04:33:32.825Z,12.43
2023-04-14T04:36:02.574Z,12.47
2023-04-14T04:38:32.006Z,12.15
2023-04-14T04:41:01.658Z,12.03
2023-04-14T04:43:30.825Z,12.34
2023-04-14T04:46:23.004Z,12.63
2023-04-14T04:48:55.009Z,12.59
2023-04-14T04:51:26.105Z,12.96
2023-04-14T04:53:55.003Z,12.78
2023-04-14T04:56:23.803Z,12.65
2023-04-14T04:58:52.479Z,12.86
2023-04-14T05:01:21.694Z,12.98
2023-04-14T05:03:50.506Z,12.94
2023-04-14T05:06:20.666Z,12.92
2023-04-14T05:08:51.835Z,12.94
2023-04-14T05:11:20.774Z,13.20
2023-04-14T05:13:49.665Z,13.14
2023-04-14T05:16:18.488Z,12.92
2023-04-14T05:18:47.281Z,12.67
2023-04-14T05:21:16.232Z,12.69
2023-04-14T05:23:47.266Z,12.30
2023-04-14T05:28:48.371Z,12.69
2023-04-14T05:31:17.394Z,12.75
2023-04-14T05:33:46.057Z,12.63
2023-04-14T05:36:14.775Z,12.48
2023-04-14T05:38:43.709Z,12.41
2023-04-14T05:41:13.951Z,12.88
2023-04-14T05:43:43.108Z,13.01
2023-04-14T05:46:11.789Z,13.20
2023-04-14T05:48:40.444Z,13.35
2023-04-14T05:51:09.412Z,13.29
2023-04-14T05:53:38.092Z,13.21
2023-04-14T05:56:07.054Z,13.27
2023-04-14T05:58:37.346Z,13.00
2023-04-14T06:01:06.387Z,13.04
2023-04-14T06:03:38.595Z,12.83
2023-04-14T06:06:11.545Z,12.91
2023-04-14T06:08:40.463Z,13.19
2023-04-14T06:11:09.089Z,13.27
2023-04-14T06:13:39.150Z,13.20
2023-04-14T06:16:08.822Z,13.59
2023-04-14T06:18:37.475Z,13.48
2023-04-14T06:21:06.308Z,13.44
2023-04-14T06:23:35.955Z,13.55
2023-04-14T06:26:05.565Z,13.24
2023-04-14T06:28:34.296Z,13.57
2023-04-14T06:31:04.766Z,13.57
2023-04-14T06:33:33.426Z,13.04
2023-04-14T06:36:03.189Z,12.93
2023-04-14T06:38:32.152Z,12.67
2023-04-14T06:41:01.204Z,12.91
2023-04-14T06:43:29.882Z,13.05
2023-04-14T06:45:59.085Z,13.24
2023-04-14T06:48:29.248Z,13.48
2023-04-14T06:50:58.893Z,13.52
2023-04-14T06:53:27.849Z,13.22
2023-04-14T06:56:00.566Z,13.57
2023-04-14T06:58:30.123Z,13.84
2023-04-14T07:01:03.160Z,13.87
2023-04-14T07:03:34.515Z,13.83
2023-04-14T07:06:04.958Z,14.08
2023-04-14T07:08:35.141Z,14.19
2023-04-14T07:11:05.804Z,13.86
2023-04-14T07:13:34.846Z,13.76
2023-04-14T07:16:03.624Z,13.80
2023-04-14T07:18:34.080Z,14.00
2023-04-14T07:21:03.689Z,14.00
2023-04-14T07:23:33.620Z,14.09
2023-04-14T07:26:02.829Z,14.16
2023-04-14T07:28:32.523Z,14.18
2023-04-14T07:31:08.982Z,14.32
2023-04-14T07:33:39.826Z,13.96
2023-04-14T07:36:09.539Z,14.27
2023-04-14T07:38:38.668Z,14.06
2023-04-14T07:41:07.968Z,14.35
2023-04-14T07:43:39.169Z,14.44
2023-04-14T07:46:09.029Z,14.43
2023-04-14T07:48:39.086Z,14.14
2023-04-14T07:51:08.453Z,14.41
2023-04-14T07:53:42.309Z,14.55
2023-04-14T07:56:11.377Z,14.52
2023-04-14T07:58:40.356Z,14.80
2023-04-14T08:01:09.126Z,14.70
2023-04-14T08:03:41.286Z,14.54
2023-04-14T08:06:11.619Z,14.53
2023-04-14T08:08:40.906Z,14.62
2023-04-14T08:11:09.775Z,14.38
2023-04-14T08:13:38.567Z,14.85
2023-04-14T08:16:07.864Z,14.87
2023-04-14T08:18:40.981Z,14.61
2023-04-14T08:21:10.338Z,14.46
2023-04-14T08:23:39.015Z,14.65
2023-04-14T08:26:07.742Z,15.07
2023-04-14T08:28:37.239Z,15.05
2023-04-14T08:31:08.076Z,14.89
2023-04-14T08:33:36.966Z,14.81
2023-04-14T08:36:07.816Z,14.45
2023-04-14T08:38:36.636Z,14.57
2023-04-14T08:41:08.955Z,14.38
2023-04-14T08:43:37.667Z,14.18
2023-04-14T08:46:07.252Z,14.43
2023-04-14T08:48:37.256Z,14.07
2023-04-14T08:51:18.820Z,14.13
2023-04-14T08:53:47.424Z,14.18
2023-04-14T08:56:18.241Z,14.03
2023-04-14T08:58:47.630Z,14.21
2023-04-14T09:01:16.881Z,14.00
2023-04-14T09:03:46.411Z,14.19
2023-04-14T09:06:18.092Z,14.27
2023-04-14T09:08:47.080Z,14.08
2023-04-14T09:11:17.160Z,14.19
2023-04-14T09:13:46.126Z,14.13
2023-04-14T09:16:15.419Z,14.45
2023-04-14T09:18:45.395Z,14.37
2023-04-14T09:21:50.818Z,14.18
2023-04-14T09:24:09.317Z,14.26
2023-04-14T09:26:40.412Z,14.09
2023-04-14T09:29:09.107Z,14.24
2023-04-14T09:31:38.085Z,13.92
2023-04-14T09:34:16.978Z,14.15
2023-04-14T09:37:02.402Z,13.97
2023-04-14T09:39:32.233Z,13.95
2023-04-14T09:42:01.562Z,13.72
2023-04-14T09:44:30.379Z,13.82
2023-04-14T09:47:00.751Z,13.83
2023-04-14T09:49:30.247Z,13.63
2023-04-14T09:52:05.278Z,13.43
2023-04-14T09:54:34.065Z,13.45
2023-04-14T09:57:04.061Z,13.63
2023-04-14T09:59:34.300Z,13.48
2023-04-14T10:02:05.725Z,13.68
2023-04-14T10:04:34.984Z,13.66
2023-04-14T10:07:07.489Z,13.75
2023-04-14T10:09:38.514Z,13.65
2023-04-14T10:12:15.534Z,13.79
2023-04-14T10:14:45.502Z,13.78
2023-04-14T10:17:14.687Z,13.73
2023-04-14T10:19:43.381Z,13.58
2023-04-14T10:22:14.013Z,13.65
2023-04-14T10:24:43.604Z,13.59
2023-04-14T10:27:12.863Z,13.74
2023-04-14T10:29:44.996Z,13.77
2023-04-14T10:32:16.014Z,13.47
2023-04-14T10:34:57.729Z,13.65
2023-04-14T10:37:28.225Z,13.81
2023-04-14T10:39:59.506Z,13.78
2023-04-14T10:42:32.885Z,13.39
2023-04-14T10:45:06.701Z,13.39
2023-04-14T10:47:36.388Z,13.53
2023-04-14T10:50:15.624Z,13.27
2023-04-14T10:52:54.307Z,13.30
2023-04-14T10:55:24.130Z,12.94
2023-04-14T10:57:54.652Z,12.93
2023-04-14T11:00:25.634Z,13.03
2023-04-14T11:02:58.442Z,13.40
2023-04-14T11:05:27.288Z,13.38
2023-04-14T11:08:01.542Z,13.17
2023-04-14T11:10:34.760Z,13.17
2023-04-14T11:13:05.457Z,13.37
2023-04-14T11:15:51.302Z,13.21
2023-04-14T11:18:33.975Z,13.26
2023-04-14T11:21:04.733Z,13.21
2023-04-14T11:23:35.666Z,13.12
2023-04-14T11:26:07.119Z,13.28
2023-04-14T11:28:37.070Z,13.38
2023-04-14T11:31:06.783Z,13.00
2023-04-14T11:33:37.300Z,13.15
2023-04-14T11:36:07.594Z,13.04
2023-04-14T11:38:40.351Z,13.25
2023-04-14T11:41:10.101Z,13.34
2023-04-14T11:43:39.098Z,13.32
2023-04-14T11:46:11.036Z,13.42
2023-04-14T11:48:40.039Z,13.26
2023-04-14T11:51:08.693Z,13.22
2023-04-14T11:53:40.475Z,13.29
2023-04-14T11:56:09.473Z,13.36
2023-04-14T11:58:38.281Z,13.09
2023-04-14T12:01:07.804Z,13.03
2023-04-14T12:03:39.371Z,12.88
2023-04-14T12:06:08.874Z,12.93
2023-04-14T12:08:39.241Z,12.95
2023-04-14T12:11:14.667Z,12.98
2023-04-14T12:13:44.422Z,12.86
2023-04-14T12:16:13.660Z,13.02
2023-04-14T12:18:42.613Z,12.94
2023-04-14T12:21:12.111Z,12.83
2023-04-14T12:23:42.586Z,12.69
2023-04-14T12:26:12.613Z,12.70
2023-04-14T12:28:42.259Z,12.51
2023-04-14T12:31:12.075Z,12.57
2023-04-14T12:33:40.989Z,12.50
2023-04-14T12:36:14.026Z,12.33
2023-04-14T12:38:50.023Z,12.56
2023-04-14T12:41:23.203Z,12.32
2023-04-14T12:43:54.303Z,12.37
2023-04-14T12:46:27.225Z,12.35
2023-04-14T12:48:56.240Z,12.28
2023-04-14T12:51:25.070Z,12.21
2023-04-14T12:54:07.351Z,12.19
2023-04-14T12:56:42.486Z,12.17
2023-04-14T12:59:11.234Z,12.34
2023-04-14T13:01:40.571Z,12.32
2023-04-14T13:04:09.490Z,12.28
2023-04-14T13:06:38.899Z,12.34
2023-04-14T13:09:09.340Z,12.13
2023-04-14T13:11:38.355Z,12.28
2023-04-14T13:14:07.857Z,12.31
2023-04-14T13:16:37.116Z,12.17
2023-04-14T13:19:05.846Z,12.12
2023-04-14T13:21:35.393Z,11.97
2023-04-14T13:24:04.656Z,12.01
2023-04-14T13:26:34.936Z,12.00
2023-04-14T13:29:04.183Z,12.39
2023-04-14T13:31:34.107Z,12.21
2023-04-14T13:34:02.898Z,12.27
2023-04-14T13:36:31.939Z,12.37
2023-04-14T13:39:00.857Z,12.35
2023-04-14T13:41:29.799Z,12.39
2023-04-14T13:44:00.420Z,12.40
2023-04-14T13:46:29.451Z,12.43
2023-04-14T13:48:58.508Z,12.46
2023-04-14T13:51:29.663Z,12.34
2023-04-14T13:53:59.804Z,12.22
2023-04-14T13:56:28.471Z,12.33
2023-04-14T13:58:57.144Z,12.11
2023-04-14T14:01:27.631Z,12.35
2023-04-14T14:03:56.904Z,12.33
2023-04-14T14:06:26.583Z,12.49
2023-04-14T14:09:05.237Z,12.53
2023-04-14T14:11:35.439Z,12.36
2023-04-14T14:14:04.425Z,12.25
2023-04-14T14:16:37.176Z,12.11
2023-04-14T14:19:08.387Z,12.28
2023-04-14T14:21:39.589Z,11.90
2023-04-14T14:24:08.575Z,12.07
2023-04-14T14:26:37.199Z,11.99
2023-04-14T14:29:05.890Z,11.67
2023-04-14T14:31:36.620Z,11.56
2023-04-14T14:34:05.538Z,11.66
2023-04-14T14:36:34.370Z,11.73
2023-04-14T14:39:03.376Z,11.70
2023-04-14T14:41:32.022Z,11.44
2023-04-14T14:44:01.628Z,11.53
2023-04-14T14:46:31.552Z,11.69
2023-04-14T14:49:01.530Z,11.62
2023-04-14T14:51:30.150Z,11.60
2023-04-14T14:54:09.186Z,11.68
2023-04-14T14:56:39.191Z,11.58
2023-04-14T14:59:08.766Z,11.36
2023-04-14T15:01:37.748Z,11.49
2023-04-14T15:04:07.958Z,11.70
2023-04-14T15:06:37.556Z,11.47
2023-04-14T15:09:06.742Z,11.41
2023-04-14T15:11:35.661Z,11.32
2023-04-14T15:14:06.049Z,11.17
2023-04-14T15:16:34.909Z,10.79
2023-04-14T15:19:04.180Z,10.89
2023-04-14T15:21:34.561Z,10.86
2023-04-14T15:24:03.593Z,10.75
2023-04-14T15:26:32.837Z,10.78
2023-04-14T15:29:02.657Z,10.80
2023-04-14T15:31:31.387Z,10.87
2023-04-14T15:34:02.131Z,10.68
2023-04-14T15:36:31.829Z,10.68
2023-04-14T15:39:02.421Z,10.66
2023-04-14T15:41:31.104Z,10.71
2023-04-14T15:44:00.270Z,10.38
2023-04-14T15:46:29.309Z,10.59
2023-04-14T15:48:59.019Z,10.73
2023-04-14T15:51:28.235Z,10.50
2023-04-14T15:53:56.947Z,10.64
2023-04-14T15:56:27.157Z,10.51
2023-04-14T15:58:58.421Z,10.26
2023-04-14T16:01:27.071Z,10.41
2023-04-14T16:03:56.235Z,10.46
2023-04-14T16:06:24.885Z,10.27
2023-04-14T16:08:53.564Z,10.24
2023-04-14T16:11:24.313Z,10.25
2023-04-14T16:13:55.139Z,10.34
2023-04-14T16:16:25.159Z,10.43
2023-04-14T16:18:53.925Z,10.44
2023-04-14T16:21:22.614Z,10.51
2023-04-14T16:23:51.895Z,10.23
2023-04-14T16:26:20.985Z,10.33
2023-04-14T16:28:49.634Z,10.53
2023-04-14T16:31:20.023Z,10.44
2023-04-14T16:33:49.367Z,10.23
2023-04-14T16:36:19.319Z,10.36
2023-04-14T16:38:49.202Z,10.56
2023-04-14T16:41:20.428Z,10.44
2023-04-14T16:43:49.514Z,10.55
2023-04-14T16:46:19.954Z,10.63
2023-04-14T16:48:49.035Z,10.64
2023-04-14T16:51:18.267Z,10.52
2023-04-14T16:53:47.614Z,10.33
2023-04-14T16:56:18.093Z,10.25
2023-04-14T16:58:47.577Z,10.24
2023-04-14T17:01:16.895Z,10.21
2023-04-14T17:03:48.491Z,10.30
2023-04-14T17:06:18.158Z,10.26
2023-04-14T17:08:46.836Z,10.28
2023-04-14T17:11:16.602Z,10.11
2023-04-14T17:13:46.225Z,9.82
2023-04-14T17:16:16.135Z,10.10
2023-04-14T17:18:45.592Z,9.89
2023-04-14T17:21:16.605Z,10.03
2023-04-14T17:23:46.801Z,10.14
2023-04-14T17:26:17.511Z,10.03
2023-04-14T17:28:48.340Z,9.89
2023-04-14T17:31:18.007Z,9.79
2023-04-14T17:33:48.057Z,9.78
2023-04-14T17:36:19.274Z,9.75
2023-04-14T17:38:51.701Z,9.75
2023-04-14T17:41:22.407Z,9.70
2023-04-14T17:43:52.448Z,9.75
2023-04-14T17:46:29.778Z,9.55
2023-04-14T17:48:59.698Z,9.42
2023-04-14T17:51:32.296Z,9.34
2023-04-14T17:54:03.457Z,9.36
2023-04-14T17:56:35.356Z,9.42
2023-04-14T17:59:06.256Z,9.62
2023-04-14T18:01:35.715Z,9.28
2023-04-14T18:04:05.908Z,9.42
2023-04-14T18:06:37.579Z,9.32
2023-04-14T18:09:07.018Z,9.53
2023-04-14T18:11:38.244Z,9.35
2023-04-14T18:14:09.059Z,9.38
2023-04-14T18:16:41.173Z,9.27
2023-04-14T18:19:10.606Z,9.41
2023-04-14T18:21:43.775Z,9.38
2023-04-14T18:26:48.193Z,9.24
2023-04-14T18:29:20.029Z,9.38
2023-04-14T18:31:49.055Z,9.36
2023-04-14T18:34:20.605Z,9.27
2023-04-14T18:36:51.911Z,9.47
2023-04-14T18:39:23.410Z,9.52
2023-04-14T18:41:53.679Z,9.56
2023-04-14T18:44:25.027Z,9.49
2023-04-14T18:47:01.348Z,9.34
2023-04-14T18:49:33.090Z,9.52
2023-04-14T18:52:05.502Z,9.51
2023-04-14T18:54:36.802Z,9.50
2023-04-14T18:57:08.252Z,9.28
2023-04-14T18:59:39.414Z,9.42
2023-04-14T19:02:10.879Z,9.28
2023-04-14T19:04:43.843Z,9.10
2023-04-14T19:07:14.375Z,9.22
2023-04-14T19:09:46.783Z,9.24
2023-04-14T19:12:27.499Z,9.05
2023-04-14T19:14:58.416Z,8.88
2023-04-14T19:17:30.147Z,8.92
2023-04-14T19:20:01.518Z,8.84
2023-04-14T19:22:32.155Z,8.78
2023-04-14T19:25:01.853Z,8.91
2023-04-14T19:27:35.672Z,8.82
2023-04-14T19:30:08.353Z,8.93
2023-04-14T19:32:41.184Z,8.81
2023-04-14T19:35:13.825Z,8.50
2023-04-14T19:37:45.023Z,8.72
2023-04-14T19:40:18.358Z,8.64
2023-04-14T19:42:48.338Z,8.70
2023-04-14T19:45:17.912Z,8.84
2023-04-14T19:47:47.841Z,8.86
2023-04-14T19:50:19.142Z,8.78
2023-04-14T19:52:52.192Z,8.61
2023-04-14T19:55:26.106Z,8.61
2023-04-14T19:57:57.145Z,8.64
2023-04-14T20:00:27.078Z,8.87
2023-04-14T20:02:57.271Z,8.92
2023-04-14T20:05:26.042Z,9.02
2023-04-14T20:07:56.734Z,8.91
2023-04-14T20:10:25.937Z,8.99
2023-04-14T20:12:55.665Z,8.93
2023-04-14T20:15:25.349Z,8.66
2023-04-14T20:17:54.815Z,8.70
2023-04-14T20:20:24.383Z,8.80
2023-04-14T20:23:02.087Z,8.82
2023-04-14T20:25:34.103Z,8.84
2023-04-14T20:28:04.999Z,8.86
2023-04-14T20:30:35.796Z,8.83
2023-04-14T20:33:06.671Z,8.72
2023-04-14T20:35:39.592Z,8.86
2023-04-14T20:38:09.134Z,9.02
2023-04-14T20:40:40.191Z,8.96
2023-04-14T20:43:09.711Z,8.76
2023-04-14T20:45:40.512Z,8.70
2023-04-14T20:48:09.427Z,8.68
2023-04-14T20:50:38.754Z,8.66
2023-04-14T20:53:07.435Z,8.70
2023-04-14T20:55:36.962Z,8.57
2023-04-14T20:58:07.349Z,8.32
2023-04-14T21:00:36.469Z,8.32
2023-04-14T21:03:06.558Z,8.06
2023-04-14T21:05:35.644Z,7.99
2023-04-14T21:08:05.062Z,7.99
2023-04-14T21:10:33.866Z,8.17
2023-04-14T21:15:24.908Z,7.92
2023-04-14T21:15:57.078Z,8.05
2023-04-14T21:18:26.551Z,7.95
2023-04-14T21:20:55.232Z,7.98
2023-04-14T21:23:24.143Z,8.11
2023-04-14T21:25:55.411Z,7.98
2023-04-14T21:28:24.145Z,8.19
2023-04-14T21:30:55.870Z,7.99
2023-04-14T21:33:24.636Z,7.83
2023-04-14T21:35:54.101Z,8.01
2023-04-14T21:38:22.895Z,7.97
2023-04-14T21:40:52.152Z,7.95
2023-04-14T21:43:21.219Z,7.88
2023-04-14T21:45:50.033Z,7.91
2023-04-14T21:48:20.753Z,8.10
2023-04-14T21:50:49.811Z,7.57
2023-04-14T21:53:19.342Z,7.84
2023-04-14T21:55:48.156Z,7.64
2023-04-14T21:58:37.049Z,7.61
2023-04-14T22:01:07.111Z,7.58
2023-04-14T22:03:40.406Z,7.66
2023-04-14T22:06:11.395Z,7.50
2023-04-14T22:08:41.445Z,7.37
2023-04-14T22:11:10.227Z,7.29
2023-04-14T22:13:38.944Z,7.34
2023-04-14T22:16:09.429Z,6.75
2023-04-14T22:18:39.845Z,6.93
2023-04-14T22:21:13.230Z,6.89
2023-04-14T22:23:43.628Z,6.60
2023-04-14T22:26:13.459Z,6.86
2023-04-14T22:28:42.286Z,7.43
2023-04-14T22:31:11.062Z,7.46
2023-04-14T22:33:41.516Z,7.29
2023-04-14T22:36:10.274Z,7.29
2023-04-14T22:38:38.953Z,6.93
2023-04-14T22:41:07.930Z,6.90
2023-04-14T22:43:36.833Z,6.93
2023-04-14T22:46:05.830Z,7.10
2023-04-14T22:48:34.768Z,7.22
2023-04-14T22:51:05.082Z,7.46
2023-04-14T22:53:34.023Z,7.66
2023-04-14T22:56:03.680Z,7.66
2023-04-14T22:58:38.970Z,7.75
2023-04-14T23:01:19.038Z,7.56
2023-04-14T23:03:52.590Z,7.60
2023-04-14T23:06:23.408Z,7.57
2023-04-14T23:08:52.256Z,7.48
2023-04-14T23:11:21.496Z,7.18
2023-04-14T23:13:51.384Z,7.14
2023-04-14T23:16:20.817Z,7.00
2023-04-14T23:18:52.426Z,6.99
2023-04-14T23:21:22.279Z,6.94
2023-04-14T23:23:52.950Z,7.46
2023-04-14T23:26:22.828Z,7.44
2023-04-14T23:28:53.029Z,7.48
2023-04-14T23:31:21.901Z,7.57
2023-04-14T23:33:52.926Z,7.49
2023-04-14T23:36:21.910Z,7.56
2023-04-14T23:38:52.608Z,7.46
2023-04-14T23:41:21.912Z,7.68
2023-04-14T23:43:50.806Z,7.36
2023-04-14T23:46:19.502Z,7.39
2023-04-14T23:48:49.584Z,7.40
2023-04-14T23:51:22.164Z,7.62
2023-04-14T23:53:52.646Z,7.55
2023-04-14T23:56:22.390Z,8.07
2023-04-14T23:58:52.091Z,8.01
